sensor_id;sensor_type;location;lat;lon;timestamp;P1;durP1;ratioP1;P2;durP2;ratioP2
14799;SDS011;7491;57.750;11.970;2022-12-16T01:16:04;15.20;;;6.10;;
14799;SDS011;7491;57.750;11.970;2022-12-16T01:19:21;12.23;;;5.73;;
14799;SDS011;7491;57.750;11.970;2022-12-16T06:20:23;8.57;;;5.23;;
14799;SDS011;7491;57.750;11.970;2022-12-16T06:27:16;8.60;;;4.70;;
14799;SDS011;7491;57.750;11.970;2022-12-16T06:44:37;32.53;;;10.67;;
14799;SDS011;7491;57.750;11.970;2022-12-16T07:36:16;10.67;;;5.83;;
14799;SDS011;7491;57.750;11.970;2022-12-16T08:31:47;28.83;;;12.67;;
14799;SDS011;7491;57.750;11.970;2022-12-16T08:35:09;33.20;;;14.27;;
14799;SDS011;7491;57.750;11.970;2022-12-16T08:41:32;29.13;;;10.63;;
14799;SDS011;7491;57.750;11.970;2022-12-16T08:44:17;21.17;;;10.07;;
14799;SDS011;7491;57.750;11.970;2022-12-16T08:47:01;31.77;;;12.33;;
14799;SDS011;7491;57.750;11.970;2022-12-16T08:49:57;19.40;;;8.90;;
14799;SDS011;7491;57.750;11.970;2022-12-16T08:52:42;19.47;;;8.20;;
14799;SDS011;7491;57.750;11.970;2022-12-16T08:55:30;20.63;;;10.70;;
14799;SDS011;7491;57.750;11.970;2022-12-16T08:58:15;21.77;;;11.50;;
14799;SDS011;7491;57.750;11.970;2022-12-16T09:00:59;22.50;;;11.60;;
14799;SDS011;7491;57.750;11.970;2022-12-16T09:03:43;23.30;;;12.33;;
14799;SDS011;7491;57.750;11.970;2022-12-16T09:06:28;26.47;;;15.00;;
14799;SDS011;7491;57.750;11.970;2022-12-16T09:09:12;49.00;;;24.27;;
14799;SDS011;7491;57.750;11.970;2022-12-16T09:11:58;22.43;;;13.70;;
14799;SDS011;7491;57.750;11.970;2022-12-16T09:14:43;5.20;;;3.57;;
14799;SDS011;7491;57.750;11.970;2022-12-16T09:17:29;8.50;;;4.53;;
14799;SDS011;7491;57.750;11.970;2022-12-16T09:20:13;8.27;;;4.97;;
14799;SDS011;7491;57.750;11.970;2022-12-16T09:23:00;6.40;;;4.20;;
14799;SDS011;7491;57.750;11.970;2022-12-16T09:25:44;7.57;;;4.77;;
14799;SDS011;7491;57.750;11.970;2022-12-16T09:28:30;9.90;;;5.57;;
14799;SDS011;7491;57.750;11.970;2022-12-16T09:31:14;11.77;;;6.33;;
14799;SDS011;7491;57.750;11.970;2022-12-16T09:33:58;11.60;;;5.03;;
14799;SDS011;7491;57.750;11.970;2022-12-16T09:36:42;11.27;;;5.43;;
14799;SDS011;7491;57.750;11.970;2022-12-16T09:39:26;15.23;;;5.43;;
14799;SDS011;7491;57.750;11.970;2022-12-16T09:42:13;13.03;;;5.87;;
14799;SDS011;7491;57.750;11.970;2022-12-16T09:45:10;11.50;;;5.27;;
14799;SDS011;7491;57.750;11.970;2022-12-16T09:48:02;17.63;;;6.03;;
14799;SDS011;7491;57.750;11.970;2022-12-16T09:50:54;12.17;;;5.80;;
14799;SDS011;7491;57.750;11.970;2022-12-16T09:53:41;25.37;;;12.13;;
14799;SDS011;7491;57.750;11.970;2022-12-16T09:56:27;18.47;;;7.30;;
14799;SDS011;7491;57.750;11.970;2022-12-16T09:59:13;14.63;;;6.50;;
14799;SDS011;7491;57.750;11.970;2022-12-16T10:02:07;13.93;;;6.20;;
14799;SDS011;7491;57.750;11.970;2022-12-16T10:04:53;24.70;;;7.93;;
14799;SDS011;7491;57.750;11.970;2022-12-16T10:07:39;9.83;;;5.03;;
14799;SDS011;7491;57.750;11.970;2022-12-16T10:10:31;17.90;;;7.90;;
14799;SDS011;7491;57.750;11.970;2022-12-16T10:13:21;11.80;;;6.20;;
14799;SDS011;7491;57.750;11.970;2022-12-16T10:16:15;11.93;;;5.90;;
14799;SDS011;7491;57.750;11.970;2022-12-16T10:19:09;15.33;;;7.27;;
14799;SDS011;7491;57.750;11.970;2022-12-16T10:22:02;16.37;;;6.97;;
14799;SDS011;7491;57.750;11.970;2022-12-16T10:24:54;16.33;;;7.83;;
14799;SDS011;7491;57.750;11.970;2022-12-16T10:27:43;13.20;;;6.60;;
14799;SDS011;7491;57.750;11.970;2022-12-16T10:30:29;11.43;;;6.87;;
14799;SDS011;7491;57.750;11.970;2022-12-16T10:33:16;11.13;;;6.20;;
14799;SDS011;7491;57.750;11.970;2022-12-16T10:36:04;16.30;;;7.57;;
14799;SDS011;7491;57.750;11.970;2022-12-16T10:38:58;16.07;;;8.47;;
14799;SDS011;7491;57.750;11.970;2022-12-16T10:41:45;17.60;;;8.73;;
14799;SDS011;7491;57.750;11.970;2022-12-16T10:44:34;29.70;;;12.33;;
14799;SDS011;7491;57.750;11.970;2022-12-16T10:47:23;16.67;;;7.60;;
14799;SDS011;7491;57.750;11.970;2022-12-16T10:50:10;14.30;;;6.93;;
14799;SDS011;7491;57.750;11.970;2022-12-16T10:52:58;13.77;;;8.43;;
14799;SDS011;7491;57.750;11.970;2022-12-16T10:55:48;13.23;;;6.57;;
14799;SDS011;7491;57.750;11.970;2022-12-16T10:58:42;11.20;;;7.63;;
14799;SDS011;7491;57.750;11.970;2022-12-16T11:01:26;11.07;;;6.30;;
14799;SDS011;7491;57.750;11.970;2022-12-16T11:07:29;10.20;;;5.87;;
14799;SDS011;7491;57.750;11.970;2022-12-16T11:10:27;15.43;;;7.72;;
14799;SDS011;7491;57.750;11.970;2022-12-16T11:13:17;24.23;;;11.33;;
14799;SDS011;7491;57.750;11.970;2022-12-16T11:16:09;17.15;;;10.98;;
14799;SDS011;7491;57.750;11.970;2022-12-16T11:18:56;26.10;;;14.83;;
14799;SDS011;7491;57.750;11.970;2022-12-16T11:21:40;20.60;;;13.17;;
14799;SDS011;7491;57.750;11.970;2022-12-16T11:24:24;23.17;;;13.10;;
14799;SDS011;7491;57.750;11.970;2022-12-16T11:27:14;29.43;;;15.63;;
14799;SDS011;7491;57.750;11.970;2022-12-16T11:30:13;14.47;;;7.27;;
14799;SDS011;7491;57.750;11.970;2022-12-16T11:33:01;26.23;;;11.33;;
14799;SDS011;7491;57.750;11.970;2022-12-16T11:35:54;25.53;;;11.37;;
14799;SDS011;7491;57.750;11.970;2022-12-16T11:38:48;26.38;;;14.00;;
14799;SDS011;7491;57.750;11.970;2022-12-16T11:41:35;19.33;;;10.00;;
14799;SDS011;7491;57.750;11.970;2022-12-16T11:44:24;18.65;;;9.77;;
14799;SDS011;7491;57.750;11.970;2022-12-16T11:47:14;23.90;;;11.37;;
14799;SDS011;7491;57.750;11.970;2022-12-16T11:50:04;17.63;;;9.17;;
14799;SDS011;7491;57.750;11.970;2022-12-16T11:52:54;17.77;;;9.33;;
14799;SDS011;7491;57.750;11.970;2022-12-16T11:55:39;16.23;;;8.37;;
14799;SDS011;7491;57.750;11.970;2022-12-16T11:58:27;15.63;;;8.13;;
14799;SDS011;7491;57.750;11.970;2022-12-16T12:01:22;14.97;;;8.47;;
14799;SDS011;7491;57.750;11.970;2022-12-16T12:04:09;20.73;;;8.07;;
14799;SDS011;7491;57.750;11.970;2022-12-16T12:06:58;13.80;;;8.00;;
14799;SDS011;7491;57.750;11.970;2022-12-16T12:10:03;14.50;;;7.50;;
14799;SDS011;7491;57.750;11.970;2022-12-16T12:13:00;17.67;;;7.33;;
14799;SDS011;7491;57.750;11.970;2022-12-16T12:15:55;8.40;;;5.60;;
14799;SDS011;7491;57.750;11.970;2022-12-16T12:18:51;9.40;;;5.95;;
14799;SDS011;7491;57.750;11.970;2022-12-16T12:21:42;10.90;;;5.90;;
14799;SDS011;7491;57.750;11.970;2022-12-16T12:24:34;14.03;;;7.67;;
14799;SDS011;7491;57.750;11.970;2022-12-16T12:27:28;31.48;;;11.95;;
14799;SDS011;7491;57.750;11.970;2022-12-16T12:30:17;48.23;;;19.13;;
14799;SDS011;7491;57.750;11.970;2022-12-16T12:33:06;44.67;;;17.50;;
14799;SDS011;7491;57.750;11.970;2022-12-16T12:36:09;25.65;;;11.32;;
14799;SDS011;7491;57.750;11.970;2022-12-16T12:39:00;78.05;;;27.42;;
14799;SDS011;7491;57.750;11.970;2022-12-16T12:42:03;16.07;;;9.13;;
14799;SDS011;7491;57.750;11.970;2022-12-16T12:45:12;24.02;;;11.73;;
14799;SDS011;7491;57.750;11.970;2022-12-16T12:48:07;13.88;;;9.15;;
14799;SDS011;7491;57.750;11.970;2022-12-16T12:50:58;26.47;;;11.90;;
14799;SDS011;7491;57.750;11.970;2022-12-16T12:53:53;18.13;;;9.23;;
14799;SDS011;7491;57.750;11.970;2022-12-16T12:56:49;23.70;;;11.40;;
14799;SDS011;7491;57.750;11.970;2022-12-16T12:59:39;15.57;;;7.60;;
14799;SDS011;7491;57.750;11.970;2022-12-16T13:02:34;19.67;;;8.47;;
14799;SDS011;7491;57.750;11.970;2022-12-16T13:05:26;20.27;;;8.97;;
14799;SDS011;7491;57.750;11.970;2022-12-16T13:11:15;32.83;;;15.30;;
14799;SDS011;7491;57.750;11.970;2022-12-16T13:13:59;23.17;;;10.20;;
14799;SDS011;7491;57.750;11.970;2022-12-16T13:16:58;19.95;;;10.80;;
14799;SDS011;7491;57.750;11.970;2022-12-16T13:19:42;25.67;;;13.80;;
14799;SDS011;7491;57.750;11.970;2022-12-16T13:22:28;22.03;;;11.00;;
14799;SDS011;7491;57.750;11.970;2022-12-16T13:25:34;21.02;;;9.18;;
14799;SDS011;7491;57.750;11.970;2022-12-16T13:28:24;27.40;;;14.90;;
14799;SDS011;7491;57.750;11.970;2022-12-16T13:31:11;16.30;;;10.15;;
14799;SDS011;7491;57.750;11.970;2022-12-16T13:33:58;15.68;;;7.47;;
14799;SDS011;7491;57.750;11.970;2022-12-16T13:36:53;18.38;;;8.98;;
14799;SDS011;7491;57.750;11.970;2022-12-16T13:39:40;16.63;;;8.02;;
14799;SDS011;7491;57.750;11.970;2022-12-16T13:45:37;17.00;;;7.83;;
14799;SDS011;7491;57.750;11.970;2022-12-16T13:48:27;16.63;;;7.70;;
14799;SDS011;7491;57.750;11.970;2022-12-16T13:54:45;20.65;;;8.15;;
14799;SDS011;7491;57.750;11.970;2022-12-16T13:57:35;25.75;;;9.75;;
14799;SDS011;7491;57.750;11.970;2022-12-16T14:00:22;24.23;;;10.40;;
14799;SDS011;7491;57.750;11.970;2022-12-16T14:03:10;23.50;;;11.00;;
14799;SDS011;7491;57.750;11.970;2022-12-16T14:06:00;23.63;;;9.57;;
14799;SDS011;7491;57.750;11.970;2022-12-16T14:08:48;41.73;;;15.43;;
14799;SDS011;7491;57.750;11.970;2022-12-16T14:11:35;79.13;;;26.17;;
14799;SDS011;7491;57.750;11.970;2022-12-16T14:14:30;26.97;;;11.77;;
14799;SDS011;7491;57.750;11.970;2022-12-16T14:17:20;74.50;;;31.02;;
14799;SDS011;7491;57.750;11.970;2022-12-16T14:20:10;28.83;;;12.83;;
14799;SDS011;7491;57.750;11.970;2022-12-16T14:23:02;48.45;;;21.88;;
14799;SDS011;7491;57.750;11.970;2022-12-16T14:26:10;43.97;;;19.73;;
14799;SDS011;7491;57.750;11.970;2022-12-16T14:28:56;35.47;;;15.40;;
14799;SDS011;7491;57.750;11.970;2022-12-16T14:31:41;35.63;;;15.70;;
14799;SDS011;7491;57.750;11.970;2022-12-16T14:34:27;34.93;;;16.27;;
14799;SDS011;7491;57.750;11.970;2022-12-16T14:37:15;31.73;;;15.27;;
14799;SDS011;7491;57.750;11.970;2022-12-16T14:40:00;34.17;;;16.80;;
14799;SDS011;7491;57.750;11.970;2022-12-16T14:42:45;32.40;;;13.63;;
14799;SDS011;7491;57.750;11.970;2022-12-16T14:45:32;27.93;;;13.13;;
14799;SDS011;7491;57.750;11.970;2022-12-16T14:48:21;30.42;;;12.70;;
14799;SDS011;7491;57.750;11.970;2022-12-16T14:51:14;28.93;;;13.27;;
14799;SDS011;7491;57.750;11.970;2022-12-16T14:54:16;24.93;;;12.10;;
14799;SDS011;7491;57.750;11.970;2022-12-16T14:57:02;27.77;;;11.73;;
14799;SDS011;7491;57.750;11.970;2022-12-16T14:59:47;24.02;;;10.25;;
14799;SDS011;7491;57.750;11.970;2022-12-16T15:02:42;23.77;;;10.87;;
14799;SDS011;7491;57.750;11.970;2022-12-16T15:05:30;21.20;;;9.53;;
14799;SDS011;7491;57.750;11.970;2022-12-16T15:08:20;17.03;;;8.17;;
14799;SDS011;7491;57.750;11.970;2022-12-16T15:11:12;24.33;;;10.03;;
14799;SDS011;7491;57.750;11.970;2022-12-16T15:13:59;30.13;;;13.35;;
14799;SDS011;7491;57.750;11.970;2022-12-16T15:16:47;24.93;;;11.13;;
14799;SDS011;7491;57.750;11.970;2022-12-16T15:19:37;21.40;;;10.83;;
14799;SDS011;7491;57.750;11.970;2022-12-16T15:22:27;22.90;;;10.10;;
14799;SDS011;7491;57.750;11.970;2022-12-16T15:25:16;21.37;;;9.13;;
14799;SDS011;7491;57.750;11.970;2022-12-16T15:28:04;19.43;;;8.53;;
14799;SDS011;7491;57.750;11.970;2022-12-16T15:30:48;20.53;;;8.53;;
14799;SDS011;7491;57.750;11.970;2022-12-16T15:33:33;27.37;;;10.87;;
14799;SDS011;7491;57.750;11.970;2022-12-16T15:36:20;25.20;;;12.63;;
14799;SDS011;7491;57.750;11.970;2022-12-16T15:39:14;34.97;;;19.57;;
14799;SDS011;7491;57.750;11.970;2022-12-16T15:42:02;33.30;;;19.10;;
14799;SDS011;7491;57.750;11.970;2022-12-16T15:44:49;22.27;;;13.53;;
14799;SDS011;7491;57.750;11.970;2022-12-16T15:47:35;20.30;;;10.27;;
14799;SDS011;7491;57.750;11.970;2022-12-16T15:50:21;20.37;;;10.43;;
14799;SDS011;7491;57.750;11.970;2022-12-16T15:53:13;20.63;;;11.67;;
14799;SDS011;7491;57.750;11.970;2022-12-16T15:55:59;16.77;;;9.33;;
14799;SDS011;7491;57.750;11.970;2022-12-16T15:58:44;21.53;;;11.50;;
14799;SDS011;7491;57.750;11.970;2022-12-16T16:01:37;21.93;;;11.33;;
14799;SDS011;7491;57.750;11.970;2022-12-16T16:04:30;27.13;;;13.17;;
14799;SDS011;7491;57.750;11.970;2022-12-16T16:07:14;32.67;;;17.30;;
14799;SDS011;7491;57.750;11.970;2022-12-16T16:10:16;26.38;;;13.93;;
14799;SDS011;7491;57.750;11.970;2022-12-16T16:13:02;21.07;;;11.83;;
14799;SDS011;7491;57.750;11.970;2022-12-16T16:15:46;25.33;;;10.33;;
14799;SDS011;7491;57.750;11.970;2022-12-16T16:18:32;14.77;;;9.63;;
14799;SDS011;7491;57.750;11.970;2022-12-16T16:21:28;15.47;;;8.33;;
14799;SDS011;7491;57.750;11.970;2022-12-16T16:24:13;17.50;;;10.10;;
14799;SDS011;7491;57.750;11.970;2022-12-16T16:26:58;19.03;;;9.67;;
14799;SDS011;7491;57.750;11.970;2022-12-16T16:29:44;23.33;;;9.27;;
14799;SDS011;7491;57.750;11.970;2022-12-16T16:32:28;16.67;;;7.47;;
14799;SDS011;7491;57.750;11.970;2022-12-16T16:35:14;14.37;;;7.77;;
14799;SDS011;7491;57.750;11.970;2022-12-16T16:37:58;16.10;;;7.93;;
14799;SDS011;7491;57.750;11.970;2022-12-16T16:40:43;19.50;;;9.33;;
14799;SDS011;7491;57.750;11.970;2022-12-16T16:43:28;27.03;;;11.73;;
14799;SDS011;7491;57.750;11.970;2022-12-16T16:49:23;17.93;;;8.87;;
14799;SDS011;7491;57.750;11.970;2022-12-16T16:52:14;18.57;;;9.37;;
14799;SDS011;7491;57.750;11.970;2022-12-16T16:55:00;20.93;;;8.87;;
14799;SDS011;7491;57.750;11.970;2022-12-16T16:57:44;24.27;;;10.40;;
14799;SDS011;7491;57.750;11.970;2022-12-16T17:00:28;34.20;;;18.58;;
14799;SDS011;7491;57.750;11.970;2022-12-16T17:03:27;18.73;;;10.27;;
14799;SDS011;7491;57.750;11.970;2022-12-16T17:06:11;17.70;;;9.53;;
14799;SDS011;7491;57.750;11.970;2022-12-16T17:08:56;16.43;;;8.77;;
14799;SDS011;7491;57.750;11.970;2022-12-16T17:11:41;18.70;;;9.40;;
14799;SDS011;7491;57.750;11.970;2022-12-16T17:14:25;16.57;;;9.83;;
14799;SDS011;7491;57.750;11.970;2022-12-16T17:17:09;20.93;;;10.47;;
14799;SDS011;7491;57.750;11.970;2022-12-16T17:19:55;23.23;;;11.10;;
14799;SDS011;7491;57.750;11.970;2022-12-16T17:22:39;23.08;;;12.07;;
14799;SDS011;7491;57.750;11.970;2022-12-16T17:25:25;24.47;;;11.37;;
14799;SDS011;7491;57.750;11.970;2022-12-16T17:28:10;22.03;;;10.07;;
14799;SDS011;7491;57.750;11.970;2022-12-16T17:30:54;20.10;;;8.53;;
14799;SDS011;7491;57.750;11.970;2022-12-16T17:33:39;15.67;;;8.13;;
14799;SDS011;7491;57.750;11.970;2022-12-16T17:36:23;19.40;;;8.87;;
14799;SDS011;7491;57.750;11.970;2022-12-16T17:39:07;15.40;;;7.53;;
14799;SDS011;7491;57.750;11.970;2022-12-16T17:41:55;14.47;;;7.10;;
14799;SDS011;7491;57.750;11.970;2022-12-16T17:44:39;18.37;;;8.57;;
14799;SDS011;7491;57.750;11.970;2022-12-16T17:47:23;17.55;;;7.47;;
14799;SDS011;7491;57.750;11.970;2022-12-16T17:50:07;16.00;;;8.02;;
14799;SDS011;7491;57.750;11.970;2022-12-16T17:52:52;15.30;;;8.18;;
14799;SDS011;7491;57.750;11.970;2022-12-16T17:55:37;15.47;;;7.40;;
14799;SDS011;7491;57.750;11.970;2022-12-16T17:58:29;21.30;;;8.37;;
14799;SDS011;7491;57.750;11.970;2022-12-16T18:01:14;18.57;;;8.43;;
14799;SDS011;7491;57.750;11.970;2022-12-16T18:03:58;12.83;;;6.27;;
14799;SDS011;7491;57.750;11.970;2022-12-16T18:06:42;21.38;;;7.60;;
14799;SDS011;7491;57.750;11.970;2022-12-16T18:09:26;17.30;;;7.50;;
14799;SDS011;7491;57.750;11.970;2022-12-16T18:12:10;22.13;;;8.23;;
14799;SDS011;7491;57.750;11.970;2022-12-16T18:15:02;21.40;;;8.83;;
14799;SDS011;7491;57.750;11.970;2022-12-16T18:17:46;22.87;;;9.57;;
14799;SDS011;7491;57.750;11.970;2022-12-16T18:20:31;19.27;;;10.47;;
14799;SDS011;7491;57.750;11.970;2022-12-16T18:23:15;21.57;;;10.67;;
14799;SDS011;7491;57.750;11.970;2022-12-16T18:25:59;20.30;;;9.17;;
14799;SDS011;7491;57.750;11.970;2022-12-16T18:28:46;20.67;;;9.93;;
14799;SDS011;7491;57.750;11.970;2022-12-16T18:31:32;20.85;;;10.27;;
14799;SDS011;7491;57.750;11.970;2022-12-16T18:34:16;24.77;;;10.52;;
14799;SDS011;7491;57.750;11.970;2022-12-16T18:37:01;18.57;;;9.23;;
14799;SDS011;7491;57.750;11.970;2022-12-16T18:39:45;24.97;;;10.27;;
14799;SDS011;7491;57.750;11.970;2022-12-16T18:42:29;33.10;;;12.87;;
14799;SDS011;7491;57.750;11.970;2022-12-16T18:45:13;28.38;;;12.02;;
14799;SDS011;7491;57.750;11.970;2022-12-16T18:47:58;32.47;;;11.93;;
14799;SDS011;7491;57.750;11.970;2022-12-16T18:50:43;33.33;;;13.03;;
14799;SDS011;7491;57.750;11.970;2022-12-16T18:53:27;25.20;;;10.70;;
14799;SDS011;7491;57.750;11.970;2022-12-16T18:56:11;25.33;;;11.93;;
14799;SDS011;7491;57.750;11.970;2022-12-16T18:58:55;32.90;;;11.97;;
14799;SDS011;7491;57.750;11.970;2022-12-16T19:01:45;34.07;;;13.63;;
14799;SDS011;7491;57.750;11.970;2022-12-16T19:04:36;30.00;;;11.35;;
14799;SDS011;7491;57.750;11.970;2022-12-16T19:07:32;28.77;;;13.35;;
14799;SDS011;7491;57.750;11.970;2022-12-16T19:10:16;25.75;;;11.55;;
14799;SDS011;7491;57.750;11.970;2022-12-16T19:13:17;27.47;;;11.40;;
14799;SDS011;7491;57.750;11.970;2022-12-16T19:16:09;36.47;;;17.92;;
14799;SDS011;7491;57.750;11.970;2022-12-16T19:18:53;25.93;;;13.20;;
14799;SDS011;7491;57.750;11.970;2022-12-16T19:21:35;21.53;;;11.43;;
14799;SDS011;7491;57.750;11.970;2022-12-16T19:24:19;25.43;;;11.30;;
14799;SDS011;7491;57.750;11.970;2022-12-16T19:27:03;25.33;;;12.68;;
14799;SDS011;7491;57.750;11.970;2022-12-16T19:29:47;24.13;;;12.27;;
14799;SDS011;7491;57.750;11.970;2022-12-16T19:32:31;25.73;;;12.90;;
14799;SDS011;7491;57.750;11.970;2022-12-16T19:35:15;25.77;;;11.93;;
14799;SDS011;7491;57.750;11.970;2022-12-16T19:38:01;25.40;;;11.70;;
14799;SDS011;7491;57.750;11.970;2022-12-16T19:40:48;22.08;;;11.32;;
14799;SDS011;7491;57.750;11.970;2022-12-16T19:43:37;21.10;;;10.00;;
14799;SDS011;7491;57.750;11.970;2022-12-16T19:46:23;22.67;;;11.77;;
14799;SDS011;7491;57.750;11.970;2022-12-16T19:49:09;22.35;;;9.77;;
14799;SDS011;7491;57.750;11.970;2022-12-16T19:52:09;25.13;;;11.47;;
14799;SDS011;7491;57.750;11.970;2022-12-16T19:54:54;19.35;;;9.98;;
14799;SDS011;7491;57.750;11.970;2022-12-16T19:57:38;22.70;;;10.98;;
14799;SDS011;7491;57.750;11.970;2022-12-16T20:00:22;22.48;;;10.82;;
14799;SDS011;7491;57.750;11.970;2022-12-16T20:03:06;26.03;;;12.17;;
14799;SDS011;7491;57.750;11.970;2022-12-16T20:06:02;29.23;;;14.70;;
14799;SDS011;7491;57.750;11.970;2022-12-16T20:08:48;29.07;;;13.53;;
14799;SDS011;7491;57.750;11.970;2022-12-16T20:11:35;26.53;;;10.93;;
14799;SDS011;7491;57.750;11.970;2022-12-16T20:14:20;26.73;;;14.05;;
14799;SDS011;7491;57.750;11.970;2022-12-16T20:17:04;44.23;;;20.33;;
14799;SDS011;7491;57.750;11.970;2022-12-16T20:19:49;40.87;;;18.83;;
14799;SDS011;7491;57.750;11.970;2022-12-16T20:22:33;36.92;;;15.45;;
14799;SDS011;7491;57.750;11.970;2022-12-16T20:25:17;34.60;;;17.20;;
14799;SDS011;7491;57.750;11.970;2022-12-16T20:28:03;28.70;;;14.38;;
14799;SDS011;7491;57.750;11.970;2022-12-16T20:30:47;33.60;;;15.30;;
14799;SDS011;7491;57.750;11.970;2022-12-16T20:33:32;30.60;;;12.97;;
14799;SDS011;7491;57.750;11.970;2022-12-16T20:36:16;30.73;;;12.53;;
14799;SDS011;7491;57.750;11.970;2022-12-16T20:39:00;27.60;;;13.00;;
14799;SDS011;7491;57.750;11.970;2022-12-16T20:41:44;24.57;;;12.03;;
14799;SDS011;7491;57.750;11.970;2022-12-16T20:44:30;24.45;;;12.68;;
14799;SDS011;7491;57.750;11.970;2022-12-16T20:47:14;25.93;;;12.47;;
14799;SDS011;7491;57.750;11.970;2022-12-16T20:49:58;23.10;;;11.70;;
14799;SDS011;7491;57.750;11.970;2022-12-16T20:52:42;19.95;;;9.90;;
14799;SDS011;7491;57.750;11.970;2022-12-16T20:55:26;16.85;;;9.40;;
14799;SDS011;7491;57.750;11.970;2022-12-16T20:58:15;18.52;;;10.20;;
14799;SDS011;7491;57.750;11.970;2022-12-16T21:01:01;20.30;;;8.90;;
14799;SDS011;7491;57.750;11.970;2022-12-16T21:03:45;16.80;;;9.38;;
14799;SDS011;7491;57.750;11.970;2022-12-16T21:06:29;16.33;;;8.67;;
14799;SDS011;7491;57.750;11.970;2022-12-16T21:09:17;17.50;;;9.73;;
14799;SDS011;7491;57.750;11.970;2022-12-16T21:12:01;16.20;;;10.15;;
14799;SDS011;7491;57.750;11.970;2022-12-16T21:14:45;9.97;;;5.93;;
14799;SDS011;7491;57.750;11.970;2022-12-16T21:17:30;16.45;;;9.77;;
14799;SDS011;7491;57.750;11.970;2022-12-16T21:20:13;16.63;;;8.95;;
14799;SDS011;7491;57.750;11.970;2022-12-16T21:23:07;16.33;;;8.13;;
14799;SDS011;7491;57.750;11.970;2022-12-16T21:25:52;17.23;;;8.90;;
14799;SDS011;7491;57.750;11.970;2022-12-16T21:28:36;13.30;;;7.82;;
14799;SDS011;7491;57.750;11.970;2022-12-16T21:31:21;11.95;;;7.82;;
14799;SDS011;7491;57.750;11.970;2022-12-16T21:34:07;14.17;;;8.60;;
14799;SDS011;7491;57.750;11.970;2022-12-16T21:36:51;13.15;;;7.78;;
14799;SDS011;7491;57.750;11.970;2022-12-16T21:39:47;13.77;;;7.82;;
14799;SDS011;7491;57.750;11.970;2022-12-16T21:42:33;16.10;;;8.53;;
14799;SDS011;7491;57.750;11.970;2022-12-16T21:45:18;13.83;;;8.13;;
14799;SDS011;7491;57.750;11.970;2022-12-16T21:48:02;13.07;;;8.75;;
14799;SDS011;7491;57.750;11.970;2022-12-16T21:50:51;13.93;;;8.00;;
14799;SDS011;7491;57.750;11.970;2022-12-16T21:53:35;11.97;;;7.40;;
14799;SDS011;7491;57.750;11.970;2022-12-16T21:56:19;12.70;;;7.65;;
14799;SDS011;7491;57.750;11.970;2022-12-16T21:59:04;16.27;;;8.18;;
14799;SDS011;7491;57.750;11.970;2022-12-16T22:01:48;14.00;;;8.23;;
14799;SDS011;7491;57.750;11.970;2022-12-16T22:04:32;13.13;;;7.97;;
14799;SDS011;7491;57.750;11.970;2022-12-16T22:07:18;18.77;;;8.70;;
14799;SDS011;7491;57.750;11.970;2022-12-16T22:10:02;15.98;;;8.07;;
14799;SDS011;7491;57.750;11.970;2022-12-16T22:12:47;13.38;;;8.75;;
14799;SDS011;7491;57.750;11.970;2022-12-16T22:15:32;14.00;;;8.30;;
14799;SDS011;7491;57.750;11.970;2022-12-16T22:18:15;12.13;;;7.87;;
14799;SDS011;7491;57.750;11.970;2022-12-16T22:21:00;15.33;;;8.23;;
14799;SDS011;7491;57.750;11.970;2022-12-16T22:23:47;16.02;;;8.52;;
14799;SDS011;7491;57.750;11.970;2022-12-16T22:26:31;13.77;;;8.10;;
14799;SDS011;7491;57.750;11.970;2022-12-16T22:29:16;15.15;;;8.30;;
14799;SDS011;7491;57.750;11.970;2022-12-16T22:32:00;13.23;;;8.00;;
14799;SDS011;7491;57.750;11.970;2022-12-16T22:34:45;15.13;;;7.50;;
14799;SDS011;7491;57.750;11.970;2022-12-16T22:37:29;13.05;;;8.48;;
14799;SDS011;7491;57.750;11.970;2022-12-16T22:40:15;9.70;;;6.00;;
14799;SDS011;7491;57.750;11.970;2022-12-16T22:42:59;12.57;;;7.80;;
14799;SDS011;7491;57.750;11.970;2022-12-16T22:45:43;11.23;;;6.35;;
14799;SDS011;7491;57.750;11.970;2022-12-16T22:48:27;10.83;;;6.33;;
14799;SDS011;7491;57.750;11.970;2022-12-16T22:51:12;12.67;;;7.53;;
14799;SDS011;7491;57.750;11.970;2022-12-16T22:53:58;8.53;;;6.03;;
14799;SDS011;7491;57.750;11.970;2022-12-16T22:56:40;11.63;;;7.30;;
14799;SDS011;7491;57.750;11.970;2022-12-16T22:59:25;11.77;;;7.40;;
14799;SDS011;7491;57.750;11.970;2022-12-16T23:02:09;12.02;;;7.90;;
14799;SDS011;7491;57.750;11.970;2022-12-16T23:04:53;11.00;;;6.17;;
14799;SDS011;7491;57.750;11.970;2022-12-16T23:07:38;10.80;;;6.38;;
14799;SDS011;7491;57.750;11.970;2022-12-16T23:10:22;9.98;;;6.60;;
14799;SDS011;7491;57.750;11.970;2022-12-16T23:13:10;13.85;;;6.50;;
14799;SDS011;7491;57.750;11.970;2022-12-16T23:15:55;8.57;;;5.40;;
14799;SDS011;7491;57.750;11.970;2022-12-16T23:18:40;9.57;;;6.53;;
14799;SDS011;7491;57.750;11.970;2022-12-16T23:21:24;12.27;;;7.25;;
14799;SDS011;7491;57.750;11.970;2022-12-16T23:24:05;10.15;;;6.85;;
14799;SDS011;7491;57.750;11.970;2022-12-16T23:26:50;9.70;;;6.63;;
14799;SDS011;7491;57.750;11.970;2022-12-16T23:29:36;12.35;;;6.43;;
14799;SDS011;7491;57.750;11.970;2022-12-16T23:32:21;18.67;;;8.00;;
14799;SDS011;7491;57.750;11.970;2022-12-16T23:35:05;8.13;;;5.78;;
14799;SDS011;7491;57.750;11.970;2022-12-16T23:37:49;9.52;;;6.00;;
14799;SDS011;7491;57.750;11.970;2022-12-16T23:40:33;9.55;;;6.65;;
14799;SDS011;7491;57.750;11.970;2022-12-16T23:43:17;7.83;;;5.00;;
14799;SDS011;7491;57.750;11.970;2022-12-16T23:46:03;15.18;;;7.32;;
14799;SDS011;7491;57.750;11.970;2022-12-16T23:48:47;9.23;;;5.97;;
14799;SDS011;7491;57.750;11.970;2022-12-16T23:51:31;11.15;;;7.07;;
14799;SDS011;7491;57.750;11.970;2022-12-16T23:54:15;15.37;;;7.53;;
14799;SDS011;7491;57.750;11.970;2022-12-16T23:56:59;9.27;;;6.55;;
14799;SDS011;7491;57.750;11.970;2022-12-16T23:59:58;9.97;;;6.93;;
